CN-0059 weather

Guangzhou East Airfield
Guangdong Province, China

Public forecast

Using degrees Celsius for public forecast. Weather courtesy of forecast.io.

METAR (pilot weather report)

Closest report is Guangzhou Baiyun International Airport, 14.2 nm (26.3 km) NNW. Retrieved 2019/05/24 10:30 UTC (0 seconds ago):

ZGGG 241030Z 11002MPS 8000 -SHRA SCT020 28/23 Q1008 NOSIG

TAF (pilot weather forecast)

Closest forecast is Guangzhou Baiyun International Airport, 14.2 nm (26.3 km) NNW. Retrieved 2019/05/24 06:00 UTC (4 hours ago):

TAF ZGGG 240307Z 2406/2506 12003MPS 6000 BKN030 TX29/2407Z TN25/2422Z TEMPO 2406/2412 2000 TSRA SCT011 SCT030CB BKN033